Burlington, VT

6:23 AM EDT on March 24, 2017 (GMT -0400)
Old North End | | Change Station

Elev 226 ft 44.49 °N, 73.22 °W | Updated 1 second ago

Overcast
Overcast
32.0 °F
Feels Like 25 °F
N
8.3
Wind Variable Wind from SSW
Gusts 12.3 mph

Today
High -- | Low -- °F
--% Chance of Precip.
Yesterday
High -- | Low -- °F
Precip. -- in
Pressure 30.33 in
Visibility 10.0 miles
Clouds Overcast 10000 ft
Windchill 25 °F
Dew Point 4 °F
Humidity 30%
Rainfall 0.00 in
Snow Depth Not available.
6:48 AM 7:10 PM
Waning Crescent, 16% visible
METAR KBTV 240954Z 17013G23KT 10SM OVC100 M01/M13 A3032 RMK AO2 PRESFR SLP271 T10061128
Pressure 30.33 in
Visibility 10.0 miles
Clouds Overcast 10000 ft
Windchill 25 °F
Dew Point 4 °F
Humidity 30%
Rainfall 0.00 in
Snow Depth Not available.
6:48 AM 7:10 PM
Waning Crescent, 16% visible
METAR KBTV 240954Z 17013G23KT 10SM OVC100 M01/M13 A3032 RMK AO2 PRESFR SLP271 T10061128

Get Severe Weather Alerts

Thanks for signing up!

Be on the lookout for a verification email in your inbox.

You'll start receiving the daily forecast at 8 AM.

×

10-Day Weather Forecast

Almanac

Astronomy

Mar. 24, 2017 Rise Set
Actual Time
Civil Twilight
Nautical Twilight
Astronomical Twilight
Moon
Length of Visible Light
Length of Day
Tomorrow will be .
, % of the Moon is Illuminated

Today's Extremes

State Highs State Lows

Community

WunderPhotos

Upload Photos

1,962,540 photos uploaded!

WunderBlog® & News

Nearby

Air Quality

  Air Quality AQ Index Pollutant
Not available.

Snow Depth

Station Depth Elevation

Earthquake Activity

City Distance Mag. Time & Date
Minimum magnitude displayed is 2.5.

Earthquake Activity

City Distance Mag. Time & Date
Minimum magnitude displayed is 2.5.

Coastal Water Temperatures

Place Temperature

Stations

Nearby Weather Stations

Station Location Temp. Windchill Dew Point Humidity Wind Precip. Elev Updated Type
                   

Watches & Warnings

There are currently no watches in effect.